Dobrodošli na spletni strani vremenske postaje Senovo. Vse informacije so informativnega značaja, saj vremenska postaja ni del državne mreže meteoroloških postaj. OBVESTILO: Letni količini padavin navedeni na spletni strani je potrebno prišteti 98,1 mm, zaradi izgube podatkov.


Posebna pozornost v zvezi z vremenskimi dogajanji ni potrebna.    Posebna pozornost v zvezi z vremenskimi dogajanji ni potrebna.

Pogled proti Armezu več informacij Pogled proti Armezu


Lisca več informacij Lisca


Radar strel več informacij blitzortung!


Radar padavin več informacij rain snow radar


Obiščite še:

Template documentation
and downloads

And another site



Weather Underground, zgodovina - Tekstovno

Dnevni povzetek za Avgust 13, 2017 Enote:  Angleško    Metrično   Obe
« Predhodni Dan
Naslednji Dan »
Dnevni Tedenski Mesečni Letni Po meri
  Višja: Nižja: Povprečje:
Temperatura: 81.9 °F 53.8 °F 66.4 °F
Točka rosišča: 62.1 °F 52.7 °F 56.5 °F
Vlažnost: 97 % 42 % 74 %
Hitrost vetra: 4.8 mph 0 mph 1.2 mph
Sunki vetra: 10.5 mph - -
Veter:- - SSE
Zračni tlak: 30.2 in 30 in -
Padavine: 0 in    
Historical Graphs
 
 
Tabelarni podarki za Avgust 13, 2017
Čas Temperatura Točka rosišča Zračni tlak Veter Hitrost vetra Sunki vetra Vlažnost Intenziteta padavin (urna)
00:04 59.7 °F 57.7 °F 30.1 in North 0.1 mph 1.3 mph 93 % 0 in
00:09 59.7 °F 57.7 °F 30.1 in Calm   1.6 mph 93 % 0 in
00:14 59.5 °F 57.6 °F 30.1 in Calm   1.6 mph 93 % 0 in
00:19 59.5 °F 57.6 °F 30.1 in Calm   0.9 mph 93 % 0 in
00:24 59.4 °F 57.4 °F 30.1 in Calm   0.9 mph 93 % 0 in
00:29 59.4 °F 57.4 °F 30.1 in Calm     93 % 0 in
00:34 59.2 °F 57.2 °F 30.1 in Calm     93 % 0 in
00:39 59.2 °F 57.2 °F 30.1 in NNW 0.3 mph 2.2 mph 93 % 0 in
00:44 59.2 °F 57.2 °F 30.1 in NNW 0.6 mph 2.2 mph 93 % 0 in
00:49 59 °F 57 °F 30.1 in NNW 0.5 mph 1.6 mph 93 % 0 in
00:54 58.8 °F 57 °F 30.1 in NNW 0.2 mph 1.3 mph 94 % 0 in
00:59 58.8 °F 57 °F 30.1 in Calm     94 % 0 in
01:04 58.5 °F 56.7 °F 30.1 in Calm     94 % 0 in
01:09 58.5 °F 56.7 °F 30.1 in Calm     94 % 0 in
01:14 58.3 °F 56.7 °F 30.1 in Calm     94 % 0 in
01:19 58.1 °F 56.5 °F 30.1 in North 0.1 mph 2 mph 94 % 0 in
01:24 57.9 °F 56.1 °F 30.1 in North 0.2 mph 2 mph 94 % 0 in
01:25 57.9 °F 56.1 °F 30.1 in North 0.2 mph 2 mph 94 % 0 in
01:30 57.9 °F 56.1 °F 30.1 in Calm     94 % 0 in
01:35 57.6 °F 55.8 °F 30.1 in Calm     94 % 0 in
01:40 57.6 °F 55.8 °F 30.1 in NNW 0.1 mph 2.2 mph 94 % 0 in
01:45 57.4 °F 55.8 °F 30.1 in NNW 0.2 mph 2.2 mph 94 % 0 in
01:50 57.4 °F 55.8 °F 30.1 in Calm     94 % 0 in
01:55 57.2 °F 55.6 °F 30.1 in Calm     94 % 0 in
02:00 57.2 °F 55.6 °F 30.1 in Calm     94 % 0 in
02:05 57 °F 55.2 °F 30.1 in Calm     94 % 0 in
02:10 56.8 °F 55 °F 30.1 in NNW 0.2 mph 2.5 mph 94 % 0 in
02:15 56.8 °F 55.4 °F 30.1 in NNW 0.3 mph 2.5 mph 95 % 0 in
02:20 56.8 °F 55.4 °F 30.1 in NNW 0.1 mph 1.6 mph 95 % 0 in
02:25 56.7 °F 55.2 °F 30.1 in Calm     95 % 0 in
02:30 56.7 °F 55.2 °F 30.1 in Calm     95 % 0 in
02:35 56.7 °F 55.2 °F 30.1 in Calm     95 % 0 in
02:40 56.7 °F 55.2 °F 30.1 in Calm   1.3 mph 95 % 0 in
02:45 56.7 °F 55.2 °F 30.1 in Calm   1.3 mph 95 % 0 in
02:50 56.5 °F 55 °F 30.1 in Calm     95 % 0 in
02:55 56.5 °F 55 °F 30.1 in Calm     95 % 0 in
03:00 56.3 °F 54.9 °F 30.1 in Calm     95 % 0 in
03:05 56.3 °F 54.9 °F 30.1 in Calm     95 % 0 in
03:10 56.3 °F 54.9 °F 30.1 in Calm   1.3 mph 95 % 0 in
03:15 56.3 °F 54.9 °F 30.1 in Calm   1.3 mph 95 % 0 in
03:20 56.3 °F 54.9 °F 30.1 in SSE 0.1 mph 1.6 mph 95 % 0 in
03:25 56.1 °F 54.7 °F 30.1 in SSE 0.1 mph 1.6 mph 95 % 0 in
03:30 56.1 °F 54.7 °F 30.1 in NNW 0.1 mph 1.6 mph 95 % 0 in
03:35 55.9 °F 54.5 °F 30.1 in NNW 0.1 mph 1.6 mph 95 % 0 in
03:40 55.9 °F 54.5 °F 30.1 in Calm     95 % 0 in
03:45 55.9 °F 54.5 °F 30.1 in Calm     95 % 0 in
03:50 55.9 °F 54.5 °F 30.1 in WSW 0.1 mph 1.6 mph 95 % 0 in
03:55 55.9 °F 54.9 °F 30.1 in WSW 0.2 mph 1.6 mph 96 % 0 in
04:00 55.8 °F 54.7 °F 30.1 in WSW 0.2 mph 1.3 mph 96 % 0 in
04:05 55.8 °F 54.3 °F 30.1 in Calm     95 % 0 in
04:10 55.8 °F 54.7 °F 30.1 in Calm     96 % 0 in
04:15 55.8 °F 54.7 °F 30.1 in Calm     96 % 0 in
04:20 55.6 °F 54.5 °F 30.1 in Calm     96 % 0 in
04:25 55.6 °F 54.5 °F 30.1 in Calm     96 % 0 in
04:30 55.6 °F 54.5 °F 30.1 in Calm     96 % 0 in
04:35 55.6 °F 54.5 °F 30 in Calm     96 % 0 in
04:40 55.4 °F 54.3 °F 30 in Calm     96 % 0 in
04:45 55.4 °F 54.3 °F 30 in Calm     96 % 0 in
04:50 55.4 °F 54.3 °F 30 in Calm   2 mph 96 % 0 in
04:56 55.2 °F 54.1 °F 30 in WSW 0.2 mph 2 mph 96 % 0 in
05:01 55.2 °F 54.1 °F 30 in WSW 0.3 mph 1.6 mph 96 % 0 in
05:06 55.2 °F 54.1 °F 30 in WSW 0.2 mph 1.3 mph 96 % 0 in
05:11 55 °F 54 °F 30 in Calm     96 % 0 in
05:16 55 °F 54 °F 30 in Calm     96 % 0 in
05:19 54.9 °F 53.8 °F 30.1 in Calm     96 % 0 in
05:21 54.9 °F 53.8 °F 30.1 in Calm     96 % 0 in
05:26 54.7 °F 53.6 °F 30.1 in Calm     96 % 0 in
05:29 54.7 °F 53.6 °F 30.1 in Calm     96 % 0 in
05:30 54.7 °F 53.6 °F 30.1 in Calm     96 % 0 in
05:35 54.5 °F 53.4 °F 30 in Calm     96 % 0 in
05:40 54.5 °F 53.4 °F 30 in Calm     96 % 0 in
05:45 54.3 °F 53.2 °F 30 in WSW 0.1 mph 1.3 mph 96 % 0 in
05:50 54.3 °F 53.2 °F 30 in WSW 0.1 mph 1.3 mph 96 % 0 in
05:51 54.3 °F 53.2 °F 30 in WSW 0.1 mph 1.3 mph 96 % 0 in
05:56 54.1 °F 53.1 °F 30 in Calm     96 % 0 in
06:01 54.1 °F 53.1 °F 30 in Calm     96 % 0 in
06:06 54 °F 52.9 °F 30 in Calm     96 % 0 in
06:11 54 °F 52.9 °F 30 in Calm     96 % 0 in
06:16 54 °F 52.9 °F 30 in Calm     96 % 0 in
06:21 54 °F 52.9 °F 30.1 in Calm     96 % 0 in
06:26 54 °F 52.9 °F 30.1 in Calm     96 % 0 in
06:31 54 °F 52.9 °F 30.1 in Calm   1.6 mph 96 % 0 in
06:36 54 °F 52.9 °F 30.1 in North 0.2 mph 2.5 mph 96 % 0 in
06:41 54 °F 52.9 °F 30.1 in North 0.4 mph 2.5 mph 96 % 0 in
06:46 54 °F 52.9 °F 30.1 in NNW 0.2 mph 2 mph 96 % 0 in
06:51 54 °F 52.9 °F 30.1 in NE 0.2 mph 1.1 mph 96 % 0 in
06:56 54 °F 52.9 °F 30.1 in NE 0.2 mph 1.1 mph 96 % 0 in
07:01 54 °F 52.9 °F 30.1 in Calm     96 % 0 in
07:06 53.8 °F 52.7 °F 30.1 in Calm     96 % 0 in
07:11 54 °F 52.9 °F 30.1 in Calm     96 % 0 in
07:16 54 °F 52.9 °F 30.1 in Calm     96 % 0 in
07:21 54.1 °F 53.1 °F 30.1 in Calm     96 % 0 in
07:26 54.3 °F 53.2 °F 30.1 in Calm     96 % 0 in
07:31 54.5 °F 53.8 °F 30.1 in Calm     97 % 0 in
07:36 55 °F 54.1 °F 30.1 in Calm     97 % 0 in
07:41 55.4 °F 54.3 °F 30.1 in Calm     96 % 0 in
07:43 55.4 °F 54.3 °F 30.1 in Calm   1.3 mph 96 % 0 in
07:48 55.8 °F 54.9 °F 30.1 in Calm   1.3 mph 97 % 0 in
07:53 55.9 °F 55 °F 30.1 in ENE 0.3 mph 2.7 mph 97 % 0 in
07:58 56.3 °F 55.6 °F 30.1 in ENE 0.9 mph 2.7 mph 97 % 0 in
08:03 56.5 °F 55.6 °F 30.1 in ENE 0.8 mph 2.2 mph 97 % 0 in
08:08 56.7 °F 55.8 °F 30.1 in East 0.2 mph 1.3 mph 97 % 0 in
08:13 57 °F 56.1 °F 30.1 in Calm     97 % 0 in
08:18 57.4 °F 56.5 °F 30.1 in East 0.1 mph 2 mph 97 % 0 in
08:23 57.9 °F 56.8 °F 30.1 in East 0.3 mph 2 mph 96 % 0 in
08:28 58.3 °F 57 °F 30.1 in East 0.7 mph 2 mph 96 % 0 in
08:33 58.6 °F 57.6 °F 30.1 in ENE 0.6 mph 2 mph 96 % 0 in
08:38 59.2 °F 57.7 °F 30.1 in SE 1.1 mph 3.4 mph 95 % 0 in
08:43 60.3 °F 58.8 °F 30.1 in SE 1.2 mph 3.4 mph 95 % 0 in
08:48 61.2 °F 59.7 °F 30.1 in ESE 0.9 mph 2.7 mph 95 % 0 in
08:53 61.3 °F 59.5 °F 30.1 in ESE 1.2 mph 2.7 mph 94 % 0 in
08:58 61.9 °F 59.7 °F 30.1 in ESE 1.3 mph 3.1 mph 93 % 0 in
09:03 62.1 °F 60.1 °F 30.1 in ESE 1.5 mph 3.1 mph 93 % 0 in
09:08 62.4 °F 60.1 °F 30.1 in ESE 1.2 mph 2.9 mph 92 % 0 in
09:10 62.6 °F 59.9 °F 30.1 in ESE 1.2 mph 2.9 mph 91 % 0 in
09:15 63 °F 60.3 °F 30.1 in ESE 0.7 mph 2.9 mph 91 % 0 in
09:20 63.1 °F 59.7 °F 30.1 in East 0.2 mph 2 mph 89 % 0 in
09:25 63.3 °F 60.1 °F 30.1 in SE 0.3 mph 2.9 mph 89 % 0 in
09:30 63.7 °F 60.1 °F 30.1 in SE 0.4 mph 2.9 mph 88 % 0 in
09:35 64.4 °F 60.4 °F 30.1 in South 0.5 mph 3.4 mph 87 % 0 in
09:40 64.8 °F 60.1 °F 30.1 in SSE 1 mph 3.4 mph 85 % 0 in
09:45 65.5 °F 61.2 °F 30.1 in ESE 1.4 mph 3.1 mph 86 % 0 in
09:50 66.2 °F 61.2 °F 30.1 in ESE 1.4 mph 3.1 mph 84 % 0 in
09:55 66.9 °F 61.2 °F 30.1 in ESE 1.3 mph 3.1 mph 82 % 0 in
10:00 67.6 °F 61.9 °F 30.1 in ESE 1.3 mph 3.1 mph 82 % 0 in
10:05 68.2 °F 61.2 °F 30.1 in ESE 1.7 mph 4 mph 78 % 0 in
10:10 68.7 °F 61.9 °F 30.1 in ESE 2 mph 4 mph 79 % 0 in
10:15 69.3 °F 62.1 °F 30.1 in ESE 2 mph 4.9 mph 78 % 0 in
10:20 70 °F 62.1 °F 30.1 in SE 2.5 mph 5.8 mph 76 % 0 in
10:21 70 °F 62.1 °F 30.1 in SE 2.5 mph 5.8 mph 76 % 0 in
10:26 70.5 °F 61.9 °F 30.1 in ESE 1.7 mph 4.9 mph 74 % 0 in
10:31 71.1 °F 62.1 °F 30.1 in SE 1.3 mph 4 mph 73 % 0 in
10:36 71.1 °F 61.2 °F 30.1 in ESE 1.5 mph 4 mph 71 % 0 in
10:41 71.6 °F 61.3 °F 30.1 in ESE 1.5 mph 4 mph 70 % 0 in
10:46 72.1 °F 61.3 °F 30.1 in SE 2.4 mph 6.5 mph 69 % 0 in
10:51 72.7 °F 61.5 °F 30.1 in SSE 2.7 mph 6.5 mph 68 % 0 in
10:56 73 °F 61.3 °F 30.1 in SSE 2.9 mph 4.9 mph 67 % 0 in
11:01 73.6 °F 60.6 °F 30.1 in SSE 2.6 mph 4.9 mph 64 % 0 in
11:06 73.9 °F 60.1 °F 30.1 in SSE 2 mph 4.7 mph 62 % 0 in
11:11 74.1 °F 59.4 °F 30.1 in SSE 2.1 mph 5.6 mph 60 % 0 in
11:16 74.5 °F 59.7 °F 30.1 in SSE 2.7 mph 5.6 mph 60 % 0 in
11:21 74.8 °F 59.2 °F 30.1 in SSE 2.7 mph 5.4 mph 58 % 0 in
11:26 75 °F 57.2 °F 30.1 in North 3.2 mph 6.5 mph 54 % 0 in
11:31 75.4 °F 57.6 °F 30.1 in East 4.6 mph 10.1 mph 54 % 0 in
11:36 75.6 °F 56.1 °F 30.1 in ESE 4.7 mph 10.1 mph 51 % 0 in
11:41 75.7 °F 55.2 °F 30.1 in East 3.4 mph 8.1 mph 49 % 0 in
11:46 76.1 °F 57.2 °F 30.1 in East 2.8 mph 6.3 mph 52 % 0 in
11:51 76.5 °F 56.5 °F 30.1 in ESE 3.3 mph 7.6 mph 50 % 0 in
11:56 76.6 °F 57.2 °F 30.1 in ESE 3.4 mph 7.6 mph 51 % 0 in
12:01 77 °F 56.8 °F 30.1 in SE 3.6 mph 8.7 mph 50 % 0 in
12:06 77.2 °F 56.5 °F 30.1 in SE 4.7 mph 8.7 mph 49 % 0 in
12:11 77.4 °F 56.7 °F 30.1 in ESE 4.6 mph 8.7 mph 49 % 0 in
12:16 77.7 °F 57 °F 30.1 in ESE 4.1 mph 8.7 mph 49 % 0 in
12:21 77.5 °F 56.3 °F 30.1 in ESE 4.1 mph 7.4 mph 48 % 0 in
12:26 77.7 °F 57 °F 30.1 in ESE 4.2 mph 10.3 mph 49 % 0 in
12:31 77.7 °F 56.5 °F 30.1 in ESE 4.3 mph 10.3 mph 48 % 0 in
12:36 78.3 °F 56.5 °F 30.1 in ESE 4.1 mph 7.6 mph 47 % 0 in
12:41 78.8 °F 57.4 °F 30.1 in SE 3.5 mph 7.4 mph 48 % 0 in
12:46 79 °F 57.6 °F 30.1 in SE 3.9 mph 10.5 mph 48 % 0 in
12:51 78.8 °F 56.8 °F 30.1 in SE 4 mph 10.5 mph 47 % 0 in
12:56 78.3 °F 56.5 °F 30.1 in ESE 4.3 mph 7.6 mph 47 % 0 in
13:01 77.9 °F 55.9 °F 30.1 in ESE 4.8 mph 8.5 mph 47 % 0 in
13:06 78.1 °F 56.1 °F 30.1 in ESE 3.6 mph 8.5 mph 47 % 0 in
13:11 78.1 °F 56.1 °F 30.1 in ESE 4 mph 7.4 mph 47 % 0 in
13:16 77.7 °F 55.9 °F 30.1 in ESE 4.1 mph 6.5 mph 47 % 0 in
13:21 78.3 °F 57 °F 30.1 in ESE 3.5 mph 6.5 mph 48 % 0 in
13:26 77.9 °F 55.6 °F 30.1 in ESE 3.8 mph 7.2 mph 46 % 0 in
13:31 77.4 °F 55.6 °F 30.1 in East 3 mph 7.2 mph 47 % 0 in
13:36 77.5 °F 55.8 °F 30.1 in East 2 mph 4.7 mph 47 % 0 in
13:41 78.1 °F 56.1 °F 30.1 in East 2 mph 5.8 mph 47 % 0 in
13:46 78.6 °F 56.7 °F 30.1 in ESE 3.5 mph 7.2 mph 47 % 0 in
13:51 79 °F 57 °F 30.1 in ESE 4.5 mph 8.7 mph 47 % 0 in
13:56 78.4 °F 55.9 °F 30.1 in East 3.7 mph 8.7 mph 46 % 0 in
14:01 78.8 °F 56.3 °F 30.1 in ENE 3.1 mph 7.8 mph 46 % 0 in
14:06 79 °F 55.8 °F 30.1 in NE 3.2 mph 7.8 mph 45 % 0 in
14:11 79.3 °F 56.1 °F 30.1 in ENE 3.2 mph 6 mph 45 % 0 in
14:16 79.5 °F 56.3 °F 30.1 in ENE 3.8 mph 7.4 mph 45 % 0 in
14:21 79 °F 55.2 °F 30.1 in East 4.7 mph 10.5 mph 44 % 0 in
14:26 78.6 °F 55.6 °F 30.1 in East 4.8 mph 10.5 mph 45 % 0 in
14:31 78.3 °F 55.2 °F 30.1 in East 3.4 mph 9.8 mph 45 % 0 in
14:36 78.1 °F 55.6 °F 30.1 in East 2.3 mph 5.6 mph 46 % 0 in
14:41 78.1 °F 55 °F 30.1 in ENE 2.5 mph 5.6 mph 45 % 0 in
14:46 78.8 °F 55.8 °F 30.1 in ENE 2.1 mph 5.6 mph 45 % 0 in
14:48 79 °F 55.8 °F 30.1 in ENE 2 mph 5.6 mph 45 % 0 in
14:53 79.5 °F 56.3 °F 30.1 in ENE 2.5 mph 7.8 mph 45 % 0 in
14:58 79.7 °F 55.9 °F 30.1 in East 3.8 mph 7.8 mph 44 % 0 in
15:03 79.9 °F 56.7 °F 30 in ESE 3.7 mph 7.4 mph 45 % 0 in
15:08 80.2 °F 56.3 °F 30 in SE 2.7 mph 8.5 mph 44 % 0 in
15:13 80.8 °F 56.8 °F 30 in West 3.6 mph 9.8 mph 44 % 0 in
15:18 81 °F 57 °F 30.1 in West 4.1 mph 10.1 mph 44 % 0 in
15:23 81 °F 57 °F 30.1 in ESE 3.9 mph 10.1 mph 44 % 0 in
15:28 80.8 °F 56.8 °F 30.1 in ESE 3.6 mph 8.7 mph 44 % 0 in
15:33 80.4 °F 56.5 °F 30.1 in ESE 2.8 mph 5.4 mph 44 % 0 in
15:38 79.7 °F 55.9 °F 30.1 in East 2.7 mph 5.4 mph 44 % 0 in
15:43 79.7 °F 55.9 °F 30.1 in East 2.2 mph 5.4 mph 44 % 0 in
15:48 79.3 °F 55.6 °F 30 in ESE 2 mph 4.3 mph 44 % 0 in
15:53 79.3 °F 55.6 °F 30 in SE 2.9 mph 6.5 mph 44 % 0 in
15:58 80.2 °F 57 °F 30 in SSE 3.2 mph 6.5 mph 45 % 0 in
16:03 80.6 °F 55.9 °F 30 in SE 3.7 mph 6.5 mph 43 % 0 in
16:08 81.1 °F 57.2 °F 30 in ESE 3.4 mph 6.5 mph 44 % 0 in
16:13 81.3 °F 57.4 °F 30 in East 2.5 mph 6.3 mph 44 % 0 in
16:18 81.3 °F 57.4 °F 30 in ESE 2.7 mph 6.3 mph 44 % 0 in
16:23 81.5 °F 57.6 °F 30 in ESE 1.9 mph 4.7 mph 44 % 0 in
16:28 81.5 °F 56.8 °F 30 in East 1.7 mph 4.7 mph 43 % 0 in
16:33 81.9 °F 57.2 °F 30 in ENE 1.7 mph 4.3 mph 43 % 0 in
16:38 81.7 °F 56.5 °F 30.1 in East 1.7 mph 6.3 mph 42 % 0 in
16:43 81 °F 56.5 °F 30.1 in East 2.8 mph 6.5 mph 43 % 0 in
16:48 80.4 °F 55.9 °F 30.1 in ESE 3.2 mph 6.5 mph 43 % 0 in
16:53 80.1 °F 56.1 °F 30.1 in ESE 2.3 mph 5.8 mph 44 % 0 in
16:58 80.4 °F 56.5 °F 30.1 in ESE 2.7 mph 7.8 mph 44 % 0 in
17:03 81 °F 56.5 °F 30.1 in ESE 2.9 mph 7.8 mph 43 % 0 in
17:08 81.3 °F 56.7 °F 30 in ESE 2.7 mph 6.9 mph 43 % 0 in
17:13 80.8 °F 55.6 °F 30 in ESE 3 mph 6.9 mph 42 % 0 in
17:18 81 °F 56.5 °F 30 in East 2.5 mph 6.3 mph 43 % 0 in
17:23 80.8 °F 56.1 °F 30 in ENE 2.6 mph 6 mph 43 % 0 in
17:28 81 °F 56.5 °F 30 in ENE 2.1 mph 6 mph 43 % 0 in
17:33 81.1 °F 57.2 °F 30.1 in East 1.4 mph 3.6 mph 44 % 0 in
17:38 81.5 °F 56.8 °F 30.1 in ESE 2.1 mph 4.9 mph 43 % 0 in
17:43 81.5 °F 56.8 °F 30.1 in SE 2.4 mph 5.6 mph 43 % 0 in
17:48 81.5 °F 56.8 °F 30 in SE 2.3 mph 6.3 mph 43 % 0 in
17:53 81.1 °F 56.5 °F 30 in East 2.4 mph 6.3 mph 43 % 0 in
17:58 80.2 °F 55.8 °F 30 in ENE 3.1 mph 6.5 mph 43 % 0 in
18:03 79.7 °F 55.2 °F 30 in ENE 3 mph 6.5 mph 43 % 0 in
18:08 79.2 °F 54.7 °F 30 in ENE 2.4 mph 5.4 mph 43 % 0 in
18:13 78.6 °F 54.1 °F 30 in ENE 2.2 mph 5.4 mph 43 % 0 in
18:18 78.3 °F 54.7 °F 30.1 in ENE 2.5 mph 5.4 mph 44 % 0 in
18:23 77.9 °F 54.1 °F 30.1 in ESE 2.7 mph 4.7 mph 44 % 0 in
18:28 77.5 °F 54.5 °F 30.1 in ESE 2.9 mph 5.8 mph 45 % 0 in
18:33 77.2 °F 54.1 °F 30.1 in ESE 3.3 mph 5.8 mph 45 % 0 in
18:38 77 °F 54 °F 30.1 in ESE 3 mph 5.4 mph 45 % 0 in
18:43 76.6 °F 54.3 °F 30.1 in SE 2.2 mph 4.9 mph 46 % 0 in
18:46 76.5 °F 54.7 °F 30.1 in ESE 1.7 mph 4.9 mph 47 % 0 in
18:51 75.9 °F 54.9 °F 30.1 in SE 1.6 mph 3.8 mph 48 % 0 in
18:56 75.6 °F 54.5 °F 30.1 in ESE 1.8 mph 5.6 mph 48 % 0 in
19:01 74.8 °F 55.9 °F 30.1 in East 2.3 mph 5.6 mph 52 % 0 in
19:06 74.3 °F 56.7 °F 30.1 in East 1 mph 2.9 mph 54 % 0 in
19:11 73.9 °F 57.4 °F 30.1 in East 0.3 mph 2.7 mph 56 % 0 in
19:16 73 °F 57.4 °F 30.1 in NNW 0.4 mph 2.2 mph 58 % 0 in
19:21 72.3 °F 57.7 °F 30.1 in NNW 0.7 mph 2.2 mph 60 % 0 in
19:26 71.8 °F 58.1 °F 30.1 in NNW 0.6 mph 3.1 mph 62 % 0 in
19:31 71.2 °F 58.5 °F 30.1 in NNW 0.3 mph 3.1 mph 64 % 0 in
19:36 70.9 °F 58.5 °F 30.1 in Calm     65 % 0 in
19:41 70.3 °F 58.5 °F 30.1 in North 0.1 mph 1.6 mph 66 % 0 in
19:46 69.8 °F 58.3 °F 30.1 in NNW 0.3 mph 1.6 mph 67 % 0 in
19:51 69.4 °F 58.5 °F 30.1 in NW 0.2 mph 1.6 mph 68 % 0 in
19:56 69.1 °F 58.1 °F 30.1 in NW 0.3 mph 2.5 mph 68 % 0 in
20:01 68.7 °F 58.5 °F 30.1 in NW 0.6 mph 2.7 mph 70 % 0 in
20:06 68.4 °F 58.3 °F 30.1 in NNW 0.8 mph 2.7 mph 70 % 0 in
20:11 68 °F 58.3 °F 30.1 in NNW 0.5 mph 2.2 mph 71 % 0 in
20:16 67.6 °F 58.3 °F 30.1 in NNW 0.1 mph 1.3 mph 72 % 0 in
20:21 67.3 °F 57.9 °F 30.1 in Calm   1.1 mph 72 % 0 in
20:26 66.9 °F 58.5 °F 30.1 in NNW 0.1 mph 1.6 mph 74 % 0 in
20:31 66.7 °F 58.6 °F 30.1 in NW 0.1 mph 1.6 mph 75 % 0 in
20:36 66.4 °F 58.3 °F 30.1 in Calm     75 % 0 in
20:41 66 °F 58.6 °F 30.1 in NW 0.1 mph 1.3 mph 77 % 0 in
20:46 65.8 °F 58.8 °F 30.1 in NW 0.2 mph 2 mph 78 % 0 in
20:51 65.5 °F 58.8 °F 30.1 in NW 0.1 mph 2 mph 79 % 0 in
20:56 65.1 °F 58.5 °F 30.1 in Calm     79 % 0 in
21:01 64.9 °F 58.6 °F 30.1 in Calm     80 % 0 in
21:06 64.8 °F 58.1 °F 30.1 in Calm     79 % 0 in
21:11 64.4 °F 58.1 °F 30.1 in NW 0.1 mph 1.3 mph 80 % 0 in
21:16 64.2 °F 58.3 °F 30.1 in NW 0.1 mph 1.3 mph 81 % 0 in
21:21 64.2 °F 58.3 °F 30.1 in Calm   1.3 mph 81 % 0 in
21:26 63.9 °F 57.9 °F 30.1 in Calm     81 % 0 in
21:31 63.7 °F 58.1 °F 30.1 in Calm     82 % 0 in
21:36 63.5 °F 58.3 °F 30.1 in Calm     83 % 0 in
21:41 63.5 °F 58.3 °F 30.1 in Calm     83 % 0 in
21:46 63.3 °F 58.1 °F 30.1 in Calm     83 % 0 in
21:51 63.1 °F 57.9 °F 30.2 in Calm     83 % 0 in
21:56 63 °F 57.9 °F 30.2 in Calm     84 % 0 in
22:01 63 °F 57.9 °F 30.2 in Calm   1.3 mph 84 % 0 in
22:06 62.8 °F 57.9 °F 30.2 in Calm   1.3 mph 84 % 0 in
22:12 62.6 °F 57.9 °F 30.2 in Calm   0.9 mph 85 % 0 in
22:17 62.6 °F 57.9 °F 30.2 in Calm   0.9 mph 85 % 0 in
22:22 62.6 °F 57.9 °F 30.2 in Calm   0.9 mph 85 % 0 in
22:27 62.4 °F 58.3 °F 30.2 in Calm     86 % 0 in
22:32 62.2 °F 57.9 °F 30.2 in Calm     86 % 0 in
22:37 62.1 °F 57.7 °F 30.2 in Calm     86 % 0 in
22:42 61.9 °F 57.6 °F 30.2 in Calm     86 % 0 in
22:47 61.9 °F 57.6 °F 30.2 in Calm     86 % 0 in
22:52 61.7 °F 57.6 °F 30.2 in Calm     86 % 0 in
22:57 61.7 °F 57.6 °F 30.2 in Calm     86 % 0 in
23:02 61.3 °F 57.4 °F 30.2 in Calm     87 % 0 in
23:07 61.3 °F 57.4 °F 30.2 in Calm     87 % 0 in
23:12 61 °F 57 °F 30.2 in Calm     87 % 0 in
23:17 61 °F 57 °F 30.2 in Calm     87 % 0 in
23:22 60.8 °F 56.8 °F 30.2 in Calm     87 % 0 in
23:27 60.6 °F 57 °F 30.2 in Calm     88 % 0 in
23:32 60.6 °F 57 °F 30.2 in Calm     88 % 0 in
23:37 60.4 °F 56.8 °F 30.2 in Calm     88 % 0 in
23:42 60.3 °F 56.7 °F 30.2 in Calm     88 % 0 in
23:47 60.1 °F 56.5 °F 30.2 in Calm     88 % 0 in
23:52 60.1 °F 56.5 °F 30.2 in Calm     88 % 0 in
23:57 59.9 °F 56.7 °F 30.2 in Calm     89 % 0 in
Vremenska postaja Senovo
Podatki zbrani iz Weather Underground - 3 mb

Script developed by  Jim McMurry - jmcmurry@mwt.net Adapted for the template by  Wim van der Kuil - Leuven-Template.eu

Vremenski podatki so objavljeni na:

WeatherCloud

Weather Underground

AWEKAS

HAMweather, WeatherForYou, PWS Weather

MapView

Geostik

Slovenia weather network

Oprema, ki se uporablja:

Vremenski program
Cumulus

Cumulus